Time;durP1;ratioP1;P1;durP2;ratioP2;P2;SDS_P1;SDS_P2;PMS_P1;PMS_P2;Temp;Humidity;BMP_temperature;BMP_pressure;BME280_temperature;BME280_humidity;BME280_pressure;Samples;Min_cycle;Max_cycle;Signal;HPM_P1;HPM_P2
2023/06/29 00:00:41;;;;;;;14.80;8.65;;;25.70;95.40;;;;;;7402985;19;19922;-73
2023/06/29 00:03:07;;;;;;;11.95;8.27;;;25.70;95.80;;;;;;7398466;19;19922;-73
2023/06/29 00:05:33;;;;;;;12.75;8.73;;;25.60;96.00;;;;;;7398979;19;19946;-73
2023/06/29 00:07:59;;;;;;;11.02;8.50;;;25.60;96.20;;;;;;7402307;19;19917;-73
2023/06/29 00:10:25;;;;;;;14.85;9.15;;;25.60;96.50;;;;;;7346894;19;20462;-73
2023/06/29 00:12:52;;;;;;;;;;;25.50;96.90;;;;;;7399879;19;20524;-73
2023/06/29 00:15:18;;;;;;;12.48;9.32;;;25.50;97.10;;;;;;7399691;19;20311;-73
2023/06/29 00:17:47;;;;;;;13.98;9.63;;;25.50;97.60;;;;;;7399647;19;19926;-73
2023/06/29 00:20:14;;;;;;;14.23;9.45;;;25.50;97.80;;;;;;7394492;19;19958;-74
2023/06/29 00:22:47;;;;;;;12.07;9.27;;;25.50;97.60;;;;;;7396816;19;19925;-74
2023/06/29 00:25:14;;;;;;;12.77;9.65;;;25.50;97.60;;;;;;7394381;19;19922;-72
2023/06/29 00:27:40;;;;;;;12.85;8.75;;;25.50;97.50;;;;;;7397336;19;19915;-72
2023/06/29 00:30:06;;;;;;;11.90;8.90;;;25.50;97.30;;;;;;7394479;19;19910;-73
2023/06/29 00:32:33;;;;;;;13.02;9.18;;;25.50;96.80;;;;;;7395990;19;19935;-72
2023/06/29 00:34:59;;;;;;;11.95;9.35;;;25.40;96.60;;;;;;7394442;19;19919;-73
2023/06/29 00:37:24;;;;;;;11.25;8.55;;;25.40;96.60;;;;;;7372574;19;20369;-74
2023/06/29 00:39:50;;;;;;;14.20;8.95;;;25.40;96.30;;;;;;7396325;19;19917;-74
2023/06/29 00:42:16;;;;;;;11.25;8.30;;;25.40;96.20;;;;;;7397170;19;19923;-74
2023/06/29 00:44:43;;;;;;;11.82;8.10;;;25.40;95.50;;;;;;7395691;19;20259;-73
2023/06/29 00:47:09;;;;;;;11.15;8.52;;;25.40;95.20;;;;;;7392991;19;20013;-75
2023/06/29 00:49:34;;;;;;;;;;;25.40;95.10;;;;;;7396830;19;19925;-75
2023/06/29 00:52:01;;;;;;;12.50;8.38;;;25.40;94.80;;;;;;7398633;19;19926;-74
2023/06/29 00:54:26;;;;;;;12.32;9.15;;;25.50;94.60;;;;;;7399188;19;19939;-73
2023/06/29 00:56:52;;;;;;;12.20;8.57;;;25.50;94.40;;;;;;7400046;19;19915;-74
2023/06/29 00:59:18;;;;;;;12.40;9.93;;;25.60;94.30;;;;;;7373249;19;19922;-74
2023/06/29 01:01:47;;;;;;;11.27;8.82;;;25.50;94.30;;;;;;7397811;19;20259;-74
2023/06/29 01:04:25;;;;;;;13.90;8.32;;;25.50;94.40;;;;;;7398748;19;20340;-74
2023/06/29 01:10:17;;;;;;;13.35;9.80;;;25.50;94.50;;;;;;7383290;19;20622;-74
2023/06/29 01:12:44;;;;;;;11.05;8.70;;;25.50;94.60;;;;;;7390691;19;19907;-74
2023/06/29 01:15:11;;;;;;;18.58;9.68;;;25.50;94.60;;;;;;7388596;19;19926;-74
2023/06/29 01:17:38;;;;;;;12.60;9.60;;;25.50;94.50;;;;;;7390761;19;19918;-73
2023/06/29 01:20:10;;;;;;;12.00;9.35;;;25.40;94.50;;;;;;7390274;19;19918;-74
2023/06/29 01:23:14;;;;;;;12.77;9.55;;;25.40;94.20;;;;;;7395160;19;19910;-73
2023/06/29 01:25:41;;;;;;;11.65;8.77;;;25.40;94.30;;;;;;7390722;19;19915;-73
2023/06/29 01:28:09;;;;;;;14.02;8.95;;;25.40;94.00;;;;;;7386171;19;19934;-73
2023/06/29 01:30:49;;;;;;;10.35;8.10;;;25.40;94.00;;;;;;7388812;19;20263;-74
2023/06/29 01:33:18;;;;;;;13.68;9.57;;;25.40;94.00;;;;;;7386765;19;19922;-73
2023/06/29 01:35:44;;;;;;;15.32;10.00;;;25.30;94.40;;;;;;7382547;19;19925;-73
2023/06/29 01:38:20;;;;;;;16.40;10.75;;;25.20;94.60;;;;;;7383506;19;20340;-73
2023/06/29 01:40:48;;;;;;;15.07;9.98;;;25.20;95.00;;;;;;7392973;19;19971;-74
2023/06/29 01:43:16;;;;;;;18.17;10.75;;;25.10;95.20;;;;;;7340889;19;19914;-74
2023/06/29 01:45:44;;;;;;;15.05;10.00;;;25.10;95.00;;;;;;7392231;19;19921;-73
2023/06/29 01:48:11;;;;;;;14.25;10.20;;;25.10;95.20;;;;;;7389649;19;19918;-74
2023/06/29 01:50:37;;;;;;;15.55;8.80;;;25.10;95.10;;;;;;7390950;19;20256;-73
2023/06/29 01:53:03;;;;;;;;;;;25.10;95.30;;;;;;7393313;19;20367;-74
2023/06/29 01:55:29;;;;;;;13.77;10.02;;;25.20;95.00;;;;;;7376683;19;19989;-74
2023/06/29 01:57:55;;;;;;;16.35;10.32;;;25.10;95.10;;;;;;7388939;19;19913;-74
2023/06/29 02:00:21;;;;;;;14.25;9.00;;;25.10;95.40;;;;;;7397822;19;19949;-73
2023/06/29 02:02:47;;;;;;;14.48;8.88;;;25.10;95.50;;;;;;7395079;19;19925;-73
2023/06/29 02:05:12;;;;;;;14.73;10.05;;;25.10;95.60;;;;;;7395870;19;19939;-73
2023/06/29 02:07:38;;;;;;;14.18;9.45;;;25.10;95.60;;;;;;7400234;19;19926;-73
2023/06/29 02:10:04;;;;;;;16.40;10.20;;;25.10;95.60;;;;;;7395481;19;20322;-73
2023/06/29 02:12:30;;;;;;;18.38;10.90;;;25.20;95.50;;;;;;7396540;19;19930;-73
2023/06/29 02:14:57;;;;;;;16.17;10.18;;;25.20;95.20;;;;;;7399259;19;19930;-72
2023/06/29 02:17:22;;;;;;;14.27;8.85;;;25.20;94.90;;;;;;7392033;19;20043;-73
2023/06/29 02:19:48;;;;;;;15.35;9.57;;;25.20;94.40;;;;;;7395781;19;19932;-72
2023/06/29 02:22:14;;;;;;;15.27;8.88;;;25.30;94.20;;;;;;7395472;19;20399;-74
2023/06/29 02:24:40;;;;;;;14.57;9.52;;;25.30;93.80;;;;;;7400148;19;20516;-74
2023/06/29 02:27:05;;;;;;;12.13;8.68;;;25.20;93.30;;;;;;7398017;19;20244;-74
2023/06/29 02:29:31;;;;;;;13.70;8.77;;;25.30;93.00;;;;;;7399107;19;19915;-74
2023/06/29 02:31:57;;;;;;;18.73;8.98;;;25.30;92.70;;;;;;7398758;19;19918;-73
2023/06/29 02:34:23;;;;;;;13.35;9.07;;;25.30;92.70;;;;;;7398006;19;19930;-72
2023/06/29 02:36:48;;;;;;;14.82;9.43;;;25.40;92.60;;;;;;7398953;19;20012;-74
2023/06/29 02:39:14;;;;;;;13.82;9.73;;;25.30;92.80;;;;;;7399927;19;19943;-73
2023/06/29 02:41:40;;;;;;;14.93;9.63;;;25.40;93.00;;;;;;7399062;19;20299;-73
2023/06/29 02:44:05;;;;;;;13.32;9.13;;;25.30;93.20;;;;;;7396773;19;20258;-73
2023/06/29 02:46:31;;;;;;;15.68;9.93;;;25.30;93.40;;;;;;7400523;19;19949;-73
2023/06/29 02:48:57;;;;;;;13.45;9.77;;;25.30;93.80;;;;;;7400165;19;19933;-74
2023/06/29 02:51:23;;;;;;;14.23;9.93;;;25.30;94.20;;;;;;7395542;19;19927;-73
2023/06/29 02:53:49;;;;;;;18.08;10.98;;;25.30;94.50;;;;;;7402539;19;19928;-73
2023/06/29 02:56:15;;;;;;;14.32;10.40;;;25.10;94.90;;;;;;7398426;19;19910;-73
2023/06/29 02:58:40;;;;;;;16.05;10.43;;;25.10;95.10;;;;;;7398186;19;19938;-73
2023/06/29 03:01:06;;;;;;;16.20;10.90;;;25.10;95.00;;;;;;7398112;19;20023;-75
2023/06/29 03:03:32;;;;;;;16.50;10.82;;;25.00;96.20;;;;;;7379444;19;19918;-74
2023/06/29 03:05:58;;;;;;;14.77;10.13;;;25.00;96.70;;;;;;7397299;19;19915;-73
2023/06/29 03:08:24;;;;;;;17.38;10.40;;;25.00;97.20;;;;;;7398500;19;20279;-73
2023/06/29 03:10:50;;;;;;;17.10;10.70;;;25.00;97.00;;;;;;7401580;19;20387;-72
2023/06/29 03:13:15;;;;;;;16.58;11.07;;;24.90;96.80;;;;;;7398178;19;19982;-73
2023/06/29 03:15:41;;;;;;;19.15;11.75;;;24.90;97.20;;;;;;7401712;19;19926;-72
2023/06/29 03:18:07;;;;;;;18.85;12.63;;;25.00;98.00;;;;;;7348290;19;19914;-73
2023/06/29 03:20:41;;;;;;;20.10;12.15;;;24.90;98.80;;;;;;7400324;19;19934;-73
2023/06/29 03:23:07;;;;;;;16.52;11.55;;;24.90;98.60;;;;;;7392711;19;19914;-72
2023/06/29 03:25:33;;;;;;;16.92;11.48;;;24.80;97.90;;;;;;7398712;19;19924;-73
2023/06/29 03:27:59;;;;;;;16.45;11.10;;;24.80;98.00;;;;;;7399921;19;20355;-73
2023/06/29 03:30:24;;;;;;;15.98;11.02;;;24.80;97.50;;;;;;7395511;19;19970;-74
2023/06/29 03:32:50;;;;;;;14.88;10.65;;;24.80;97.50;;;;;;7400229;19;19922;-73
2023/06/29 03:35:16;;;;;;;14.23;10.00;;;24.80;97.50;;;;;;7395278;19;20413;-73
2023/06/29 03:37:42;;;;;;;16.70;11.85;;;24.80;97.60;;;;;;7394810;19;19915;-73
2023/06/29 03:40:08;;;;;;;16.73;11.68;;;24.80;98.10;;;;;;7390582;19;19922;-73
2023/06/29 03:42:34;;;;;;;15.32;11.00;;;24.70;98.30;;;;;;7393980;19;19917;-72
2023/06/29 03:45:00;;;;;;;14.75;10.18;;;24.70;98.10;;;;;;7394418;19;20324;-72
2023/06/29 03:47:26;;;;;;;;;;;24.70;97.90;;;;;;7394318;19;19933;-74
2023/06/29 03:49:52;;;;;;;16.00;11.00;;;24.70;98.00;;;;;;7393889;19;19910;-72
2023/06/29 03:52:17;;;;;;;16.55;10.32;;;24.70;98.10;;;;;;7389543;19;19938;-72
2023/06/29 03:54:44;;;;;;;18.27;11.43;;;24.70;98.20;;;;;;7389921;19;20318;-72
2023/06/29 03:57:10;;;;;;;15.93;11.18;;;24.70;98.50;;;;;;7391524;19;20307;-72
2023/06/29 03:59:36;;;;;;;19.60;11.43;;;24.60;98.80;;;;;;7396749;19;19914;-73
2023/06/29 04:02:01;;;;;;;17.92;11.73;;;24.60;98.80;;;;;;7393582;19;19926;-73
2023/06/29 04:04:27;;;;;;;19.10;11.52;;;24.60;98.90;;;;;;7389941;19;19914;-73
2023/06/29 04:06:53;;;;;;;18.27;11.38;;;24.60;98.90;;;;;;7394449;19;19915;-72
2023/06/29 04:09:19;;;;;;;15.60;10.82;;;24.60;99.10;;;;;;7393320;19;20279;-72
2023/06/29 04:11:44;;;;;;;18.35;10.70;;;24.60;99.30;;;;;;7396032;19;19926;-72
2023/06/29 04:14:10;;;;;;;16.05;11.07;;;24.50;99.40;;;;;;7395956;19;20845;-73
2023/06/29 04:16:36;;;;;;;15.15;10.57;;;24.60;99.50;;;;;;7344064;19;20353;-73
2023/06/29 04:19:02;;;;;;;19.92;11.48;;;24.50;99.50;;;;;;7394308;19;19903;-72
2023/06/29 04:21:27;;;;;;;18.95;11.70;;;24.50;99.70;;;;;;7397967;19;19925;-72
2023/06/29 04:23:53;;;;;;;20.60;12.75;;;24.40;99.90;;;;;;7395068;19;19915;-73
2023/06/29 04:26:22;;;;;;;19.50;12.15;;;24.30;99.90;;;;;;7390289;19;20760;-72
2023/06/29 04:28:47;;;;;;;18.02;12.25;;;24.30;99.90;;;;;;7393888;19;19924;-73
2023/06/29 04:31:13;;;;;;;16.13;11.55;;;24.30;99.90;;;;;;7370375;19;19925;-72
2023/06/29 04:33:39;;;;;;;19.05;11.18;;;24.30;99.90;;;;;;7363439;19;19919;-72
2023/06/29 04:36:05;;;;;;;17.75;11.85;;;24.20;99.90;;;;;;7359405;19;19929;-72
2023/06/29 04:38:31;;;;;;;;;;;24.20;99.90;;;;;;7396766;19;19922;-73
2023/06/29 04:41:03;;;;;;;19.50;10.88;;;24.20;99.90;;;;;;7393911;19;19918;-71
2023/06/29 04:43:32;;;;;;;16.95;11.52;;;24.10;99.90;;;;;;7392759;19;19945;-71
2023/06/29 04:46:00;;;;;;;16.85;11.65;;;24.20;99.90;;;;;;7392658;19;20343;-73
2023/06/29 04:48:32;;;;;;;17.23;12.10;;;24.10;99.90;;;;;;7393535;19;19915;-72
2023/06/29 04:51:04;;;;;;;18.02;11.00;;;24.10;99.90;;;;;;7392773;19;19914;-72
2023/06/29 04:53:35;;;;;;;19.40;13.57;;;24.10;99.90;;;;;;7389413;19;20378;-72
2023/06/29 04:56:04;;;;;;;21.88;15.15;;;24.20;99.90;;;;;;7389002;19;20342;-72
2023/06/29 04:58:30;;;;;;;20.23;14.73;;;24.30;99.90;;;;;;7388593;19;19986;-73
2023/06/29 05:00:56;;;;;;;20.05;14.00;;;24.30;99.90;;;;;;7386613;19;20635;-73
2023/06/29 05:03:24;;;;;;;22.50;14.02;;;24.40;99.90;;;;;;7388727;19;19927;-72
2023/06/29 05:05:49;;;;;;;21.58;14.13;;;24.40;99.90;;;;;;7390227;19;19922;-73
2023/06/29 05:08:15;;;;;;;20.20;14.63;;;24.50;99.90;;;;;;7390712;19;19910;-73
2023/06/29 05:10:42;;;;;;;16.77;12.73;;;24.40;99.90;;;;;;7399800;19;19950;-73
2023/06/29 05:13:08;;;;;;;18.65;12.95;;;24.50;99.90;;;;;;7366145;19;19982;-72
2023/06/29 05:15:34;;;;;;;19.65;13.02;;;24.50;99.90;;;;;;7396906;19;19931;-73
2023/06/29 05:18:00;;;;;;;21.77;12.32;;;24.50;99.90;;;;;;7377080;19;19974;-73
2023/06/29 05:20:26;;;;;;;19.02;12.52;;;24.60;99.90;;;;;;7389035;19;19983;-72
2023/06/29 05:22:52;;;;;;;22.42;12.93;;;24.60;99.90;;;;;;7394093;19;20355;-73
2023/06/29 05:25:18;;;;;;;21.13;14.45;;;24.70;99.90;;;;;;7395702;19;19944;-72
2023/06/29 05:27:44;;;;;;;22.35;13.32;;;24.70;99.90;;;;;;7398304;19;20350;-72
2023/06/29 05:30:10;;;;;;;20.30;12.65;;;24.80;99.90;;;;;;7404245;19;20343;-72
2023/06/29 05:32:37;;;;;;;24.35;13.73;;;24.90;99.90;;;;;;7404770;19;20683;-72
2023/06/29 05:35:03;;;;;;;19.52;14.65;;;25.00;99.90;;;;;;7365920;19;19920;-73
2023/06/29 05:37:30;;;;;;;21.75;15.02;;;25.00;99.90;;;;;;7376982;19;19911;-74
2023/06/29 05:39:58;;;;;;;19.83;13.90;;;25.10;99.90;;;;;;7405064;19;19957;-73
2023/06/29 05:42:24;;;;;;;22.42;14.18;;;25.20;99.90;;;;;;7402175;19;19935;-73
2023/06/29 05:44:50;;;;;;;18.98;14.73;;;25.20;99.70;;;;;;7403670;19;19914;-73
2023/06/29 05:47:18;;;;;;;22.00;15.20;;;25.30;99.70;;;;;;7399200;19;19922;-72
2023/06/29 05:49:44;;;;;;;23.45;15.38;;;25.20;99.60;;;;;;7404095;19;20335;-72
2023/06/29 05:52:10;;;;;;;21.52;15.13;;;25.30;99.60;;;;;;7402277;19;19927;-73
2023/06/29 05:54:37;;;;;;;20.92;15.82;;;25.30;99.30;;;;;;7406576;19;19919;-72
2023/06/29 05:57:03;;;;;;;21.38;15.70;;;25.20;99.80;;;;;;7399913;19;20045;-73
2023/06/29 05:59:29;;;;;;;22.17;16.75;;;25.30;99.50;;;;;;7403068;19;19914;-73
2023/06/29 06:01:56;;;;;;;26.73;17.05;;;25.30;99.40;;;;;;7406715;19;19932;-73
2023/06/29 06:04:21;;;;;;;;;;;25.30;99.40;;;;;;7404334;19;20312;-73
2023/06/29 06:06:47;;;;;;;23.90;15.88;;;25.30;99.50;;;;;;7403983;19;20014;-73
2023/06/29 06:09:13;;;;;;;22.70;15.18;;;25.30;99.80;;;;;;7401742;19;19919;-73
2023/06/29 06:11:39;;;;;;;22.83;15.65;;;25.30;99.70;;;;;;7405053;19;20012;-73
2023/06/29 06:14:04;;;;;;;22.50;16.48;;;25.30;99.80;;;;;;7398914;19;19918;-73
2023/06/29 06:16:30;;;;;;;23.58;16.40;;;25.30;99.60;;;;;;7399625;19;19911;-73
2023/06/29 06:18:56;;;;;;;25.17;17.63;;;25.40;99.30;;;;;;7405915;19;19946;-73
2023/06/29 06:21:23;;;;;;;21.20;15.93;;;25.40;99.10;;;;;;7399902;19;19930;-73
2023/06/29 06:23:50;;;;;;;23.95;16.23;;;25.30;99.50;;;;;;7370295;19;19914;-72
2023/06/29 06:26:16;;;;;;;23.67;16.25;;;25.30;99.70;;;;;;7395985;19;19914;-73
2023/06/29 06:28:42;;;;;;;25.88;17.10;;;25.30;99.30;;;;;;7402793;19;19942;-73
2023/06/29 06:31:08;;;;;;;28.25;16.85;;;25.40;99.40;;;;;;7400874;19;20003;-73
2023/06/29 06:33:34;;;;;;;22.02;17.02;;;25.50;99.00;;;;;;7403502;19;19914;-73
2023/06/29 06:36:00;;;;;;;28.33;16.30;;;25.60;98.90;;;;;;7401855;19;19978;-74
2023/06/29 06:38:25;;;;;;;26.25;16.60;;;25.60;98.60;;;;;;7397336;19;19919;-74
2023/06/29 06:40:51;;;;;;;31.15;17.85;;;25.70;98.60;;;;;;7401569;19;19974;-74
2023/06/29 06:43:18;;;;;;;26.85;16.98;;;25.70;98.40;;;;;;7401046;19;20269;-74
2023/06/29 06:45:45;;;;;;;26.02;16.65;;;25.70;97.60;;;;;;7399098;19;19943;-73
2023/06/29 06:48:11;;;;;;;30.15;18.10;;;25.60;97.60;;;;;;7402902;19;19926;-74
2023/06/29 06:50:37;;;;;;;25.10;19.00;;;25.60;97.90;;;;;;7405774;19;19926;-74
2023/06/29 06:53:03;;;;;;;25.48;18.58;;;25.60;97.30;;;;;;7400847;19;19914;-74
2023/06/29 06:55:29;;;;;;;26.83;16.88;;;25.70;96.80;;;;;;7399560;19;19925;-75
2023/06/29 06:57:54;;;;;;;23.55;16.67;;;25.80;95.40;;;;;;7404427;19;19918;-73
2023/06/29 07:00:20;;;;;;;23.08;15.88;;;26.00;94.90;;;;;;7397155;19;20483;-74
2023/06/29 07:02:46;;;;;;;20.58;14.85;;;26.00;94.00;;;;;;7397188;19;19970;-73
2023/06/29 07:05:12;;;;;;;21.65;13.88;;;26.10;92.40;;;;;;7381091;19;20351;-75
2023/06/29 07:07:38;;;;;;;20.02;14.43;;;26.20;91.90;;;;;;7399457;19;19945;-74
2023/06/29 07:10:04;;;;;;;18.58;13.43;;;26.30;91.90;;;;;;7401081;19;19926;-74
2023/06/29 07:12:30;;;;;;;;;;;26.40;91.10;;;;;;7400729;19;19921;-73
2023/06/29 07:14:55;;;;;;;16.60;11.23;;;26.60;90.30;;;;;;7402302;19;19919;-73
2023/06/29 07:17:21;;;;;;;17.02;11.13;;;26.80;89.30;;;;;;7398854;19;20335;-74
2023/06/29 07:19:49;;;;;;;19.73;12.43;;;27.00;87.90;;;;;;7402486;19;19914;-74
2023/06/29 07:22:15;;;;;;;15.60;11.40;;;27.20;87.10;;;;;;7396032;19;19925;-73
2023/06/29 07:24:41;;;;;;;17.48;10.63;;;27.30;85.60;;;;;;7401250;19;19986;-73
2023/06/29 07:27:06;;;;;;;14.63;11.60;;;27.60;84.80;;;;;;7397567;19;19925;-74
2023/06/29 07:29:33;;;;;;;20.45;11.60;;;27.70;83.70;;;;;;7401562;19;19918;-74
2023/06/29 07:31:59;;;;;;;17.85;11.20;;;27.70;83.00;;;;;;7397141;19;19914;-74
2023/06/29 07:34:24;;;;;;;17.45;10.45;;;27.70;82.20;;;;;;7394907;19;19931;-74
2023/06/29 07:36:51;;;;;;;15.00;10.40;;;27.70;81.80;;;;;;7401938;19;19919;-74
2023/06/29 07:39:17;;;;;;;16.35;10.73;;;27.80;80.50;;;;;;7403087;19;19946;-74
2023/06/29 07:41:43;;;;;;;19.63;15.00;;;27.80;80.70;;;;;;7398582;19;19954;-74
2023/06/29 07:44:09;;;;;;;16.30;11.05;;;27.90;80.90;;;;;;7398843;19;19930;-75
2023/06/29 07:46:35;;;;;;;20.30;12.18;;;28.00;79.60;;;;;;7401967;19;20353;-75
2023/06/29 07:49:01;;;;;;;18.80;13.55;;;28.10;80.40;;;;;;7402118;19;19911;-74
2023/06/29 07:51:32;;;;;;;19.70;12.75;;;28.10;81.20;;;;;;7399850;19;19937;-76
2023/06/29 07:53:58;;;;;;;17.42;12.98;;;27.90;81.10;;;;;;7397949;19;19930;-75
2023/06/29 07:56:24;;;;;;;18.85;12.65;;;27.90;81.40;;;;;;7398804;19;19925;-74
2023/06/29 07:58:49;;;;;;;19.98;13.05;;;28.00;81.30;;;;;;7399393;19;19922;-75
2023/06/29 08:01:17;;;;;;;17.88;13.15;;;28.10;81.20;;;;;;7400523;19;19925;-75
2023/06/29 08:03:45;;;;;;;17.02;12.48;;;28.20;79.00;;;;;;7403390;19;19918;-75
2023/06/29 08:06:11;;;;;;;25.65;14.98;;;28.20;79.40;;;;;;7374653;19;19977;-75
2023/06/29 08:08:38;;;;;;;21.35;14.50;;;28.20;79.80;;;;;;7378425;19;19914;-75
2023/06/29 08:11:03;;;;;;;19.42;12.13;;;28.50;79.30;;;;;;7395231;19;20276;-74
2023/06/29 08:13:29;;;;;;;17.73;12.13;;;28.70;78.10;;;;;;7398950;19;19914;-73
2023/06/29 08:15:55;;;;;;;20.98;11.15;;;28.90;76.50;;;;;;7400363;19;19918;-73
2023/06/29 08:18:21;;;;;;;15.25;10.93;;;29.00;74.70;;;;;;7386346;19;20008;-75
2023/06/29 08:20:47;;;;;;;13.15;8.85;;;28.90;73.20;;;;;;7395508;19;19925;-73
2023/06/29 08:23:14;;;;;;;14.35;9.32;;;28.80;70.00;;;;;;7390450;19;19914;-75
2023/06/29 08:25:40;;;;;;;10.55;8.18;;;28.80;69.00;;;;;;7394201;19;19922;-74
2023/06/29 08:28:07;;;;;;;11.20;7.78;;;28.90;67.60;;;;;;7400288;19;20379;-75
2023/06/29 08:30:33;;;;;;;10.52;6.90;;;28.80;66.50;;;;;;7399930;19;19942;-74
2023/06/29 08:32:59;;;;;;;10.80;8.00;;;28.50;65.00;;;;;;7380823;19;19911;-74
2023/06/29 08:35:25;;;;;;;10.68;6.65;;;28.50;65.30;;;;;;7378054;19;20483;-74
2023/06/29 08:37:51;;;;;;;10.77;7.80;;;28.60;66.60;;;;;;7394890;19;19914;-74
2023/06/29 08:40:20;;;;;;;11.50;8.38;;;28.60;67.90;;;;;;7390318;19;19914;-74
2023/06/29 08:42:45;;;;;;;12.13;8.05;;;28.50;71.10;;;;;;7399211;19;19945;-75
2023/06/29 08:45:11;;;;;;;11.40;7.40;;;28.30;67.80;;;;;;7394441;19;19953;-73
2023/06/29 08:47:38;;;;;;;16.05;9.60;;;28.50;67.40;;;;;;7395170;19;19915;-74
2023/06/29 08:50:05;;;;;;;15.18;10.10;;;28.50;74.20;;;;;;7385436;19;19914;-73
2023/06/29 08:52:35;;;;;;;18.00;10.27;;;28.80;75.00;;;;;;7395488;19;19918;-74
2023/06/29 08:55:02;;;;;;;14.93;10.20;;;28.90;77.00;;;;;;7397170;19;19925;-75
2023/06/29 08:57:32;;;;;;;16.55;10.70;;;29.10;76.90;;;;;;7394077;19;19951;-74
2023/06/29 09:00:01;;;;;;;16.88;11.25;;;29.30;76.70;;;;;;7393956;19;19922;-75
2023/06/29 09:02:27;;;;;;;17.75;10.80;;;29.50;76.40;;;;;;7378756;19;20024;-74
2023/06/29 09:04:53;;;;;;;14.85;9.98;;;29.80;76.00;;;;;;7392363;19;19910;-74
2023/06/29 09:07:19;;;;;;;16.30;10.23;;;29.70;73.00;;;;;;7388476;19;20266;-75
2023/06/29 09:09:45;;;;;;;13.90;10.00;;;29.40;74.50;;;;;;7393368;19;20354;-73
2023/06/29 09:12:11;;;;;;;15.35;10.10;;;29.50;74.10;;;;;;7396698;19;19938;-75
2023/06/29 09:14:43;;;;;;;14.32;9.43;;;29.60;73.60;;;;;;7398455;19;22989;-75
2023/06/29 09:17:17;;;;;;;13.77;9.68;;;29.80;73.30;;;;;;7388828;19;19914;-74
2023/06/29 09:19:57;;;;;;;14.98;10.30;;;29.70;73.50;;;;;;7391284;19;19946;-74
2023/06/29 09:22:25;;;;;;;17.33;10.00;;;29.30;74.40;;;;;;7376963;19;19942;-75
2023/06/29 09:25:04;;;;;;;14.73;9.60;;;28.80;77.50;;;;;;7399020;19;19918;-75
2023/06/29 09:27:33;;;;;;;15.48;9.73;;;29.00;77.20;;;;;;7393495;19;19910;-75
2023/06/29 09:30:00;;;;;;;11.00;8.43;;;28.90;78.20;;;;;;7391239;19;19914;-76
2023/06/29 09:32:28;;;;;;;14.55;8.38;;;29.30;77.00;;;;;;7382725;19;19922;-75
2023/06/29 09:34:54;;;;;;;14.63;8.75;;;29.60;75.80;;;;;;7388917;19;19926;-76
2023/06/29 09:37:20;;;;;;;16.02;9.43;;;29.80;77.40;;;;;;7377626;19;19911;-74
2023/06/29 09:39:58;;;;;;;13.02;7.90;;;29.60;78.30;;;;;;7384699;19;20373;-74
2023/06/29 09:42:28;;;;;;;16.17;9.30;;;29.30;79.30;;;;;;7385818;19;19915;-74
2023/06/29 09:45:01;;;;;;;12.73;8.68;;;29.40;79.50;;;;;;7393665;19;19986;-74
2023/06/29 09:47:26;;;;;;;14.77;7.90;;;29.70;79.20;;;;;;7397458;19;19919;-74
2023/06/29 09:49:52;;;;;;;11.55;8.48;;;30.00;79.10;;;;;;7393284;19;19951;-75
2023/06/29 09:52:19;;;;;;;13.82;8.32;;;30.10;78.70;;;;;;7393023;19;19919;-75
2023/06/29 09:54:46;;;;;;;12.10;7.70;;;29.80;79.10;;;;;;7389015;19;19919;-75
2023/06/29 09:57:12;;;;;;;11.10;7.38;;;29.20;80.30;;;;;;7383681;19;19930;-73
2023/06/29 09:59:44;;;;;;;12.13;8.10;;;29.20;81.00;;;;;;7390677;19;19922;-75
2023/06/29 10:02:10;;;;;;;11.93;8.13;;;29.20;80.60;;;;;;7390961;19;19918;-75
2023/06/29 10:04:36;;;;;;;14.23;8.27;;;29.00;80.60;;;;;;7393500;19;20259;-74
2023/06/29 10:07:08;;;;;;;12.55;8.35;;;29.20;80.10;;;;;;7383715;19;19914;-75
2023/06/29 10:09:39;;;;;;;11.93;8.00;;;29.30;79.20;;;;;;7391254;19;19919;-74
2023/06/29 10:12:10;;;;;;;13.65;7.97;;;28.90;78.70;;;;;;7388699;19;19911;-74
2023/06/29 10:14:38;;;;;;;16.77;7.88;;;29.00;78.80;;;;;;7397287;19;19931;-75
2023/06/29 10:17:18;;;;;;;13.80;8.68;;;29.50;76.90;;;;;;7400157;19;19919;-75
2023/06/29 10:19:45;;;;;;;14.80;8.20;;;29.40;77.40;;;;;;7400666;19;20356;-74
2023/06/29 10:22:13;;;;;;;13.18;8.15;;;29.80;77.00;;;;;;7402656;19;19931;-74
2023/06/29 10:24:53;;;;;;;12.25;8.32;;;29.80;74.90;;;;;;7402582;19;19928;-74
2023/06/29 10:27:21;;;;;;;13.38;8.05;;;29.60;75.00;;;;;;7402482;19;19926;-74
2023/06/29 10:29:48;;;;;;;12.90;7.13;;;29.80;73.30;;;;;;7402940;19;19923;-74
2023/06/29 10:32:30;;;;;;;13.82;7.15;;;29.80;72.40;;;;;;7402913;19;19918;-74
2023/06/29 10:35:02;;;;;;;11.40;7.03;;;30.30;71.90;;;;;;7406191;19;20324;-74
2023/06/29 10:37:32;;;;;;;12.68;7.47;;;30.80;70.10;;;;;;7403528;19;19910;-74
2023/06/29 10:39:58;;;;;;;10.90;8.00;;;30.90;68.50;;;;;;7405739;19;20289;-75
2023/06/29 10:42:24;;;;;;;;;;;30.60;67.60;;;;;;7406253;19;19919;-74
2023/06/29 10:44:50;;;;;;;13.70;8.15;;;30.30;68.40;;;;;;7403804;19;19943;-74
2023/06/29 10:47:38;;;;;;;11.15;7.40;;;29.80;69.60;;;;;;7397918;19;19922;-75
2023/06/29 10:50:10;;;;;;;10.93;7.03;;;30.10;68.70;;;;;;7393106;19;20497;-75
2023/06/29 10:52:43;;;;;;;10.32;7.00;;;30.70;67.20;;;;;;7401814;19;19927;-74
2023/06/29 10:55:28;;;;;;;10.98;7.43;;;30.90;66.60;;;;;;7393558;19;20273;-75
2023/06/29 10:57:58;;;;;;;13.07;8.38;;;31.60;65.10;;;;;;7392091;19;20324;-75
2023/06/29 11:00:25;;;;;;;10.25;7.28;;;31.30;65.30;;;;;;7394051;19;19935;-74
2023/06/29 11:02:53;;;;;;;10.80;7.72;;;31.40;63.10;;;;;;7394028;19;21138;-74
2023/06/29 11:05:20;;;;;;;9.18;7.22;;;31.10;63.60;;;;;;7396021;19;19914;-74
2023/06/29 11:07:52;;;;;;;10.50;7.63;;;30.70;63.20;;;;;;7400273;19;19911;-75
2023/06/29 11:10:22;;;;;;;11.13;7.15;;;30.70;62.30;;;;;;7391207;19;20009;-75
2023/06/29 11:16:41;;;;;;;11.18;7.18;;;30.30;62.60;;;;;;7396603;19;19938;-74
2023/06/29 11:19:10;;;;;;;11.90;7.50;;;30.40;63.30;;;;;;7390464;19;19918;-75
2023/06/29 11:21:36;;;;;;;9.52;7.45;;;30.50;62.90;;;;;;7391532;19;19919;-74
2023/06/29 11:24:02;;;;;;;11.63;6.68;;;30.90;62.40;;;;;;7395481;19;20399;-76
2023/06/29 11:26:28;;;;;;;;;;;30.80;62.20;;;;;;7399230;19;19914;-75
2023/06/29 11:28:54;;;;;;;10.32;7.78;;;30.90;62.70;;;;;;7397794;19;19918;-75
2023/06/29 11:31:20;;;;;;;11.93;7.75;;;31.00;62.40;;;;;;7394874;19;19922;-73
2023/06/29 11:33:50;;;;;;;11.38;6.53;;;31.50;61.40;;;;;;7390725;19;20258;-74
2023/06/29 11:36:30;;;;;;;9.98;7.75;;;32.00;60.90;;;;;;7397723;19;20395;-74
2023/06/29 11:39:12;;;;;;;13.00;8.45;;;31.10;62.00;;;;;;7401271;19;19930;-74
2023/06/29 11:41:40;;;;;;;9.40;7.43;;;30.70;63.60;;;;;;7402007;19;19934;-74
2023/06/29 11:44:07;;;;;;;12.65;8.52;;;30.90;64.50;;;;;;7396070;19;19918;-74
2023/06/29 11:46:36;;;;;;;12.88;7.85;;;31.20;65.10;;;;;;7398186;19;19957;-75
2023/06/29 11:49:05;;;;;;;9.02;6.00;;;31.50;62.70;;;;;;7394422;19;20261;-74
2023/06/29 11:51:38;;;;;;;11.13;7.78;;;30.90;62.10;;;;;;7398767;19;19926;-75
2023/06/29 11:54:05;;;;;;;15.77;7.88;;;30.80;62.60;;;;;;7393752;19;20704;-74
2023/06/29 11:56:41;;;;;;;9.88;7.43;;;30.90;63.30;;;;;;7400758;19;19931;-74
2023/06/29 11:59:16;;;;;;;12.13;7.78;;;30.90;62.90;;;;;;7395738;19;19991;-74
2023/06/29 12:01:44;;;;;;;10.20;8.02;;;30.50;62.70;;;;;;7396581;19;19914;-74
2023/06/29 12:04:12;;;;;;;11.32;8.05;;;30.30;63.60;;;;;;7396575;19;19998;-74
2023/06/29 12:06:58;;;;;;;12.07;7.63;;;30.40;65.20;;;;;;7394595;19;19907;-75
2023/06/29 12:09:35;;;;;;;10.02;7.45;;;31.10;62.50;;;;;;7400361;19;19929;-76
2023/06/29 12:12:02;;;;;;;9.52;6.95;;;31.00;62.70;;;;;;7403484;19;19915;-75
2023/06/29 12:14:34;;;;;;;12.70;6.93;;;31.10;61.70;;;;;;7399250;19;20246;-74
2023/06/29 12:17:01;;;;;;;;;;;30.70;61.50;;;;;;7406915;19;19921;-75
2023/06/29 12:19:33;;;;;;;10.88;7.53;;;31.00;61.50;;;;;;7397461;19;19957;-73
2023/06/29 12:21:58;;;;;;;10.07;7.15;;;31.70;60.00;;;;;;7403510;19;19998;-75
2023/06/29 12:24:25;;;;;;;;;;;31.70;57.40;;;;;;7402426;19;19943;-74
2023/06/29 12:26:52;;;;;;;10.13;7.38;;;32.70;56.90;;;;;;7400848;19;19918;-75
2023/06/29 12:29:18;;;;;;;13.88;7.82;;;32.70;55.80;;;;;;7399690;19;19922;-76
2023/06/29 12:31:43;;;;;;;;;;;32.30;56.70;;;;;;7404665;19;19914;-74
2023/06/29 12:34:09;;;;;;;11.23;7.80;;;31.40;57.40;;;;;;7376829;19;19914;-74
2023/06/29 12:36:35;;;;;;;;;;;31.40;58.00;;;;;;7406961;19;19970;-75
2023/06/29 12:39:00;;;;;;;8.82;7.47;;;30.60;58.60;;;;;;7399176;19;19982;-74
2023/06/29 12:41:26;;;;;;;;;;;31.00;58.90;;;;;;7400978;19;20268;-75
2023/06/29 12:43:52;;;;;;;11.30;6.22;;;31.30;58.00;;;;;;7397614;19;20303;-74